Hutag, Mongolia
Current Conditions -  °F | °C
As of 5:00 AM on Sunday 26 Oct 2014 (Local Time) from UIII Reporting Station
Clear Clear  
Wind Chill: 15°   Ceiling: Unl
Heat Index: 21°   Visibility: 6mi
Dew Point: 12°   Wind: 4mph
Humidity: 68%   Direction: 110°ESE
Pressure: 30.15"   Gusts: NA
Location:  49.39°N, 102.7°E
Report Text: UIII 252100Z 11002MPS CAVOK M06/M11 Q1021 NOSIG RMK QFE723/096412920260
Loading
Personal Weather Stations






























Interactive Weather Map
Tropical Storm Tracking
New forecast layout! Learn more

10-Day Weather Forecast

Advertisements
Track Severe Weather on mobile